Time;durP1;ratioP1;P1;durP2;ratioP2;P2;SDS_P1;SDS_P2;PMS_P1;PMS_P2;Temp;Humidity;BMP_temperature;BMP_pressure;BME280_temperature;BME280_humidity;BME280_pressure;Samples;Min_cycle;Max_cycle;Signal;HPM_P1;HPM_P2
2021/01/19 00:01:38;;;;;;;16.73;10.52;;;;;;;-3.01;48.37;94318.66;4967615;28;20058;-75
2021/01/19 00:04:03;;;;;;;16.58;10.95;;;;;;;-3.02;48.29;94317.06;4966370;28;20450;-76
2021/01/19 00:06:29;;;;;;;16.00;10.00;;;;;;;-3.01;47.82;94303.94;4965138;28;20092;-76
2021/01/19 00:08:54;;;;;;;17.40;11.63;;;;;;;-2.95;47.71;94307.56;4966488;28;20491;-75
2021/01/19 00:11:20;;;;;;;19.23;12.52;;;;;;;-3.00;47.43;94294.41;4967265;28;20022;-75
2021/01/19 00:13:45;;;;;;;23.35;10.45;;;;;;;-2.95;47.33;94287.69;4970458;28;20030;-73
2021/01/19 00:16:10;;;;;;;18.65;11.10;;;;;;;-2.87;46.99;94309.97;4970202;28;20120;-76
2021/01/19 00:18:36;;;;;;;19.15;11.40;;;;;;;-2.89;47.60;94312.75;4969800;28;20042;-75
2021/01/19 00:21:02;;;;;;;18.65;12.18;;;;;;;-2.99;47.32;94296.00;4962203;28;20921;-75
2021/01/19 00:23:27;;;;;;;17.10;10.02;;;;;;;-2.96;47.69;94305.97;4964445;28;20093;-75
2021/01/19 00:25:53;;;;;;;30.23;13.68;;;;;;;-2.90;47.50;94306.00;4962906;28;20038;-75
2021/01/19 00:28:18;;;;;;;30.92;14.30;;;;;;;-2.89;47.28;94309.38;4969417;28;20041;-76
2021/01/19 00:30:44;;;;;;;13.52;9.55;;;;;;;-2.92;47.60;94294.22;4962020;28;20055;-76
2021/01/19 00:33:11;;;;;;;16.75;10.27;;;;;;;-2.98;47.49;94284.69;4967959;28;20050;-75
2021/01/19 00:35:37;;;;;;;24.10;12.63;;;;;;;-2.98;47.64;94303.56;4966877;28;20034;-76
2021/01/19 00:38:03;;;;;;;38.20;17.40;;;;;;;-3.04;47.41;94285.44;4966613;28;20046;-75
2021/01/19 00:40:29;;;;;;;23.17;12.50;;;;;;;-2.95;47.26;94299.81;4966561;28;20050;-75
2021/01/19 00:42:55;;;;;;;18.88;11.13;;;;;;;-2.96;47.37;94285.28;4966699;28;20050;-75
2021/01/19 00:45:21;;;;;;;28.23;12.88;;;;;;;-3.01;47.28;94297.97;4969135;28;20542;-75
2021/01/19 00:47:46;;;;;;;22.23;12.82;;;;;;;-3.01;46.91;94288.44;4965300;28;20030;-75
2021/01/19 00:50:12;;;;;;;20.55;11.93;;;;;;;-3.01;46.33;94272.13;4968879;28;20101;-75
2021/01/19 00:52:38;;;;;;;19.63;10.05;;;;;;;-3.06;46.54;94291.59;4960582;28;20050;-75
2021/01/19 00:55:05;;;;;;;16.33;9.65;;;;;;;-2.97;46.68;94296.59;4984166;28;20050;-75
2021/01/19 00:57:30;;;;;;;18.95;9.75;;;;;;;-2.98;46.92;94300.97;4964043;28;20038;-75
2021/01/19 00:59:56;;;;;;;22.73;11.52;;;;;;;-2.96;46.76;94285.28;4968940;28;20027;-75
2021/01/19 01:02:22;;;;;;;15.52;9.63;;;;;;;-3.00;46.51;94295.22;4966582;28;20022;-75
2021/01/19 01:04:47;;;;;;;13.65;9.20;;;;;;;-2.99;46.81;94302.00;4968021;28;20034;-75
2021/01/19 01:07:13;;;;;;;18.52;10.50;;;;;;;-2.91;46.62;94294.03;4966347;28;20088;-74
2021/01/19 01:09:39;;;;;;;15.50;10.27;;;;;;;-2.95;46.64;94297.22;4966541;28;20038;-74
2021/01/19 01:12:05;;;;;;;17.67;9.00;;;;;;;-2.89;46.77;94288.69;4978773;28;20502;-73
2021/01/19 01:14:34;;;;;;;24.20;12.32;;;;;;;-2.94;46.72;94304.00;4965662;28;20131;-75
2021/01/19 01:17:01;;;;;;;20.65;11.15;;;;;;;-2.99;47.18;94290.84;4980516;28;20042;-75
2021/01/19 01:19:26;;;;;;;13.27;8.98;;;;;;;-3.09;47.46;94286.84;4968067;28;20563;-74
2021/01/19 01:21:52;;;;;;;13.85;9.00;;;;;;;-3.13;47.58;94280.44;4962077;28;20118;-75
2021/01/19 01:24:18;;;;;;;15.05;9.95;;;;;;;-2.99;47.12;94296.81;4962661;28;20117;-74
2021/01/19 01:26:43;;;;;;;20.58;10.45;;;;;;;-2.91;47.08;94298.41;4963492;28;20026;-75
2021/01/19 01:29:08;;;;;;;22.08;11.23;;;;;;;-2.84;47.04;94294.09;4961346;28;20022;-75
2021/01/19 01:31:37;;;;;;;22.25;11.90;;;;;;;-2.88;46.90;94298.81;4959121;28;20168;-74
2021/01/19 01:34:05;;;;;;;26.73;13.05;;;;;;;-2.78;46.73;94298.44;4961408;28;20056;-74
2021/01/19 01:36:39;;;;;;;25.00;11.70;;;;;;;-2.74;46.69;94297.09;4968418;28;20034;-74
2021/01/19 01:39:05;;;;;;;13.75;9.52;;;;;;;-2.73;46.46;94296.09;4965640;28;20050;-74
2021/01/19 01:41:30;;;;;;;16.90;9.82;;;;;;;-2.77;46.32;94294.88;4967052;28;20557;-74
2021/01/19 01:43:56;;;;;;;15.35;9.50;;;;;;;-2.89;46.43;94273.97;4960574;28;20038;-75
2021/01/19 01:46:21;;;;;;;16.83;9.00;;;;;;;-2.82;46.75;94286.91;4965556;28;20041;-74
2021/01/19 01:48:48;;;;;;;14.82;9.43;;;;;;;-2.81;46.47;94278.97;4968463;28;20035;-74
2021/01/19 01:51:14;;;;;;;17.80;9.68;;;;;;;-2.75;46.72;94287.75;4966403;28;20038;-74
2021/01/19 01:53:41;;;;;;;15.50;9.27;;;;;;;-2.79;46.72;94286.53;4970974;28;20048;-74
2021/01/19 01:56:09;;;;;;;14.27;9.18;;;;;;;-2.77;46.73;94289.72;4967100;28;20052;-74
2021/01/19 01:58:35;;;;;;;15.68;11.18;;;;;;;-2.71;46.89;94296.69;4970593;28;20038;-74
2021/01/19 02:01:02;;;;;;;14.40;9.25;;;;;;;-2.72;46.39;94292.50;4971517;28;20046;-74
2021/01/19 02:03:27;;;;;;;17.70;10.48;;;;;;;-2.67;46.70;94300.47;4968440;28;20038;-74
2021/01/19 02:05:53;;;;;;;17.52;9.88;;;;;;;-2.74;46.89;94295.31;4966948;28;20042;-74
2021/01/19 02:08:26;;;;;;;20.15;11.40;;;;;;;-2.58;46.74;94298.50;4972273;28;20026;-74
2021/01/19 02:11:10;;;;;;;16.60;10.02;;;;;;;-2.48;46.28;94296.34;4963065;28;20078;-74
2021/01/19 02:13:40;;;;;;;14.10;9.23;;;;;;;-2.49;46.20;94285.19;4968127;28;20062;-74
2021/01/19 02:16:44;;;;;;;15.40;8.48;;;;;;;-2.46;46.16;94287.41;4965906;28;20043;-74
2021/01/19 02:19:18;;;;;;;13.75;9.00;;;;;;;-2.46;46.41;94292.59;4964441;28;20039;-75
2021/01/19 02:21:56;;;;;;;13.52;9.07;;;;;;;-2.45;46.41;94278.66;4965307;28;20043;-76
2021/01/19 02:24:34;;;;;;;15.18;9.30;;;;;;;-2.49;46.36;94292.19;4970038;28;20446;-76
2021/01/19 02:26:59;;;;;;;14.98;9.45;;;;;;;-2.45;46.47;94283.81;4965949;28;20029;-76
2021/01/19 02:29:48;;;;;;;14.23;8.93;;;;;;;-2.45;46.08;94268.31;4972014;28;21079;-76
2021/01/19 02:32:29;;;;;;;11.65;8.00;;;;;;;-2.39;46.01;94272.66;4963484;28;20046;-76
2021/01/19 02:35:07;;;;;;;16.33;10.13;;;;;;;-2.34;46.25;94279.84;4967306;28;20082;-76
2021/01/19 02:37:57;;;;;;;12.45;8.15;;;;;;;-2.37;45.99;94275.06;4965291;28;20085;-76
2021/01/19 02:40:23;;;;;;;15.88;9.15;;;;;;;-2.34;46.16;94280.63;4984881;28;20080;-76
2021/01/19 02:43:26;;;;;;;16.38;8.57;;;;;;;-2.42;46.27;94283.41;4979903;28;20085;-75
2021/01/19 02:45:56;;;;;;;16.35;10.13;;;;;;;-2.40;46.82;94294.38;4931191;28;20092;-76
2021/01/19 02:48:23;;;;;;;14.02;9.07;;;;;;;-2.45;46.48;94272.69;4963613;28;20128;-76
2021/01/19 02:50:49;;;;;;;13.13;8.82;;;;;;;-2.34;46.26;94283.22;4973199;28;20030;-76
2021/01/19 02:53:16;;;;;;;18.73;9.10;;;;;;;-2.25;46.41;94294.97;4968397;28;20424;-76
2021/01/19 02:55:43;;;;;;;15.73;9.60;;;;;;;-2.22;46.29;94292.00;4969939;28;20034;-75
2021/01/19 02:58:21;;;;;;;15.88;9.30;;;;;;;-2.23;46.45;94293.00;4968895;28;20388;-76
2021/01/19 03:01:05;;;;;;;12.25;8.27;;;;;;;-2.20;46.30;94287.41;4963300;28;20097;-76
2021/01/19 03:03:34;;;;;;;13.05;8.70;;;;;;;-2.30;46.37;94289.59;4959944;28;20041;-74
2021/01/19 03:06:19;;;;;;;17.70;10.02;;;;;;;-2.22;46.36;94283.44;4960126;28;20046;-74
2021/01/19 03:08:46;;;;;;;17.25;8.55;;;;;;;-2.11;46.45;94295.00;4964898;28;20487;-74
2021/01/19 03:11:14;;;;;;;12.73;8.25;;;;;;;-2.14;46.26;94296.19;4966005;28;20081;-74
2021/01/19 03:13:43;;;;;;;15.48;9.38;;;;;;;-2.21;46.07;94285.84;4968044;28;20135;-74
2021/01/19 03:16:14;;;;;;;12.25;8.88;;;;;;;-2.20;46.20;94291.81;4966028;28;20038;-74
2021/01/19 03:18:45;;;;;;;12.52;7.90;;;;;;;-2.22;46.32;94291.22;4981786;28;20579;-73
2021/01/19 03:21:12;;;;;;;14.40;8.88;;;;;;;-2.20;46.36;94302.94;4966232;28;20060;-75
2021/01/19 03:23:38;;;;;;;12.63;8.80;;;;;;;-2.37;46.80;94288.81;4969124;28;20123;-74
2021/01/19 03:26:05;;;;;;;14.93;8.98;;;;;;;-2.27;47.06;94291.00;4965490;28;20041;-73
2021/01/19 03:28:31;;;;;;;12.30;8.02;;;;;;;-2.28;46.54;94287.63;4969855;28;20039;-74
2021/01/19 03:30:57;;;;;;;12.38;8.77;;;;;;;-2.27;46.61;94294.41;4960098;28;20534;-74
2021/01/19 03:33:23;;;;;;;26.63;11.25;;;;;;;-2.22;46.88;94296.38;4962592;28;20089;-73
2021/01/19 03:35:49;;;;;;;17.85;9.73;;;;;;;-2.26;46.82;94303.75;4969417;28;20022;-73
2021/01/19 03:38:16;;;;;;;22.42;11.98;;;;;;;-2.29;47.05;94298.97;4973630;28;20018;-76
2021/01/19 03:40:41;;;;;;;14.55;8.75;;;;;;;-2.23;46.81;94303.34;4964736;28;20125;-74
2021/01/19 03:43:08;;;;;;;24.52;10.73;;;;;;;-2.24;46.71;94304.34;4968720;28;20177;-74
2021/01/19 03:45:33;;;;;;;21.30;11.63;;;;;;;-2.16;47.03;94312.94;4968177;28;20154;-73
2021/01/19 03:47:59;;;;;;;14.10;9.32;;;;;;;-2.19;46.69;94294.19;4972332;28;20160;-74
2021/01/19 03:50:25;;;;;;;19.30;10.88;;;;;;;-2.16;47.01;94312.94;4973810;28;20026;-74
2021/01/19 03:52:51;;;;;;;22.40;11.90;;;;;;;-2.23;46.87;94308.53;4965150;28;20042;-74
2021/01/19 03:55:16;;;;;;;22.10;11.80;;;;;;;-2.17;47.03;94311.31;4986055;28;20053;-74
2021/01/19 03:57:42;;;;;;;18.35;10.65;;;;;;;-2.16;47.04;94311.13;4966900;28;20045;-74
2021/01/19 04:00:10;;;;;;;20.23;10.00;;;;;;;-2.16;47.06;94316.31;4987473;28;20203;-74
2021/01/19 04:02:36;;;;;;;18.40;10.32;;;;;;;-2.29;47.05;94298.97;4972121;28;20106;-74
2021/01/19 04:05:03;;;;;;;15.85;9.73;;;;;;;-2.21;46.97;94311.72;4969826;28;20476;-76
2021/01/19 04:07:28;;;;;;;13.10;9.07;;;;;;;-2.30;47.05;94302.53;4969011;28;20065;-76
2021/01/19 04:09:54;;;;;;;13.25;7.60;;;;;;;-2.53;47.59;94302.09;4971557;28;20035;-76
2021/01/19 04:12:19;;;;;;;11.98;8.55;;;;;;;-2.45;47.69;94312.28;4968517;28;20263;-76
2021/01/19 04:14:45;;;;;;;16.95;9.27;;;;;;;-2.42;47.48;94327.41;4971716;28;20088;-76
2021/01/19 04:17:10;;;;;;;11.77;7.50;;;;;;;-2.41;47.65;94326.44;4967136;28;20113;-76
2021/01/19 04:19:36;;;;;;;16.98;8.95;;;;;;;-2.40;47.81;94322.84;4970038;28;20072;-75
2021/01/19 04:22:01;;;;;;;14.35;8.43;;;;;;;-2.36;47.61;94320.66;4972979;28;20458;-74
2021/01/19 04:24:27;;;;;;;13.57;8.80;;;;;;;-2.39;48.25;94324.44;4966637;28;20518;-77
2021/01/19 04:26:53;;;;;;;13.93;7.97;;;;;;;-2.37;47.68;94332.81;4973687;28;20076;-74
2021/01/19 04:29:18;;;;;;;15.85;8.52;;;;;;;-2.53;47.68;94327.97;4967038;28;20018;-75
2021/01/19 04:31:44;;;;;;;16.50;8.77;;;;;;;-2.52;48.25;94327.00;4971568;28;20050;-74
2021/01/19 04:34:09;;;;;;;13.30;9.13;;;;;;;-2.49;48.21;94325.81;4970243;28;20038;-76
2021/01/19 04:36:34;;;;;;;13.50;8.40;;;;;;;-2.40;48.23;94342.75;4969302;28;20069;-75
2021/01/19 04:39:00;;;;;;;13.50;8.88;;;;;;;-2.38;48.26;94338.97;4970026;28;20595;-75
2021/01/19 04:41:26;;;;;;;15.82;9.57;;;;;;;-2.41;48.68;94341.97;4967278;28;20027;-76
2021/01/19 04:43:54;;;;;;;14.32;8.20;;;;;;;-2.47;48.53;94327.22;4960935;28;20407;-76
2021/01/19 04:46:21;;;;;;;12.52;8.70;;;;;;;-2.46;48.03;94333.97;4966508;28;20046;-76
2021/01/19 04:48:47;;;;;;;12.32;7.90;;;;;;;-2.50;48.12;94331.97;4969745;28;20100;-75
2021/01/19 04:51:17;;;;;;;16.30;8.02;;;;;;;-2.43;47.85;94332.78;4981317;28;20051;-76
2021/01/19 04:53:50;;;;;;;13.27;8.32;;;;;;;-2.53;47.86;94311.66;4970955;28;20468;-76
2021/01/19 04:56:20;;;;;;;9.80;6.75;;;;;;;-2.52;47.65;94333.97;4969215;28;20026;-76
2021/01/19 04:58:47;;;;;;;10.35;7.18;;;;;;;-2.52;48.22;94316.66;4970257;28;20039;-75
2021/01/19 05:01:36;;;;;;;10.30;6.57;;;;;;;-2.45;47.95;94311.50;4967798;28;20920;-76
2021/01/19 05:04:14;;;;;;;14.25;7.90;;;;;;;-2.35;47.90;94320.47;4987018;28;20065;-75
2021/01/19 05:06:42;;;;;;;13.02;7.15;;;;;;;-2.28;48.32;94318.69;4967563;28;20043;-76
2021/01/19 05:09:19;;;;;;;11.57;7.32;;;;;;;-2.18;48.09;94333.81;4971789;28;20046;-75
2021/01/19 05:11:52;;;;;;;19.75;9.65;;;;;;;-2.10;48.17;94332.84;4971760;28;20570;-76
2021/01/19 05:14:22;;;;;;;15.00;8.23;;;;;;;-2.03;48.20;94333.66;4972398;28;20123;-75
2021/01/19 05:16:49;;;;;;;14.10;7.20;;;;;;;-1.96;48.19;94332.66;4963246;28;20490;-75
2021/01/19 05:19:20;;;;;;;11.18;7.30;;;;;;;-2.03;48.46;94339.63;4969720;28;20053;-75
2021/01/19 05:21:48;;;;;;;13.88;8.27;;;;;;;-1.94;48.65;94322.88;4963590;28;20073;-75
2021/01/19 05:24:14;;;;;;;17.58;9.52;;;;;;;-1.97;48.67;94322.50;4965236;28;20045;-74
2021/01/19 05:26:41;;;;;;;15.27;7.15;;;;;;;-1.97;48.60;94336.25;4984950;28;20823;-74
2021/01/19 05:29:07;;;;;;;11.07;7.03;;;;;;;-1.98;48.96;94331.25;4966404;28;20526;-75
2021/01/19 05:31:33;;;;;;;16.08;8.68;;;;;;;-2.00;48.55;94323.69;4967662;28;20086;-74
2021/01/19 05:34:08;;;;;;;14.80;9.50;;;;;;;-1.84;48.47;94332.84;4965229;28;20092;-74
2021/01/19 05:36:49;;;;;;;13.02;8.23;;;;;;;-1.80;48.61;94339.22;4964686;28;20160;-74
2021/01/19 05:39:20;;;;;;;9.40;7.32;;;;;;;-1.78;49.20;94332.06;4964683;28;20090;-74
2021/01/19 05:41:48;;;;;;;12.40;7.55;;;;;;;-1.65;48.44;94337.22;4969213;28;20058;-74
2021/01/19 05:44:17;;;;;;;12.88;9.32;;;;;;;-1.61;48.06;94328.06;4966537;28;20110;-74
2021/01/19 05:46:51;;;;;;;14.52;8.15;;;;;;;-1.58;48.03;94330.25;4963683;28;20047;-76
2021/01/19 05:49:30;;;;;;;12.30;7.85;;;;;;;-1.60;48.18;94331.44;4962918;28;20035;-76
2021/01/19 05:52:00;;;;;;;14.43;8.77;;;;;;;-1.51;47.84;94323.25;4969114;28;20503;-74
2021/01/19 05:54:30;;;;;;;11.30;6.78;;;;;;;-1.46;47.59;94326.03;4968229;28;20180;-75
2021/01/19 05:57:13;;;;;;;9.57;7.07;;;;;;;-1.43;47.65;94311.91;4967607;28;20031;-76
2021/01/19 05:59:44;;;;;;;11.35;7.65;;;;;;;-1.47;48.44;94318.50;4968687;28;20027;-76
2021/01/19 06:02:13;;;;;;;9.20;6.13;;;;;;;-1.46;49.55;94315.69;4965212;28;20570;-75
2021/01/19 06:04:49;;;;;;;9.80;6.25;;;;;;;-1.43;50.08;94309.31;4967880;28;20034;-75
2021/01/19 06:07:20;;;;;;;11.15;7.07;;;;;;;-1.39;50.30;94320.88;4967125;28;20073;-75
2021/01/19 06:09:47;;;;;;;10.82;7.82;;;;;;;-1.32;50.07;94309.47;4968098;28;20133;-74
2021/01/19 06:12:13;;;;;;;9.65;7.20;;;;;;;-1.22;50.25;94308.28;4965679;28;20529;-75
2021/01/19 06:14:39;;;;;;;9.50;6.25;;;;;;;-1.13;50.13;94320.00;4967747;28;20042;-75
2021/01/19 06:17:06;;;;;;;9.40;6.38;;;;;;;-1.03;50.08;94328.97;4964820;28;20043;-74
2021/01/19 06:19:32;;;;;;;11.13;6.60;;;;;;;-0.97;50.13;94324.72;4969252;28;20042;-74
2021/01/19 06:22:03;;;;;;;11.38;7.10;;;;;;;-0.88;50.18;94323.53;4953486;28;20046;-75
2021/01/19 06:24:40;;;;;;;10.95;7.72;;;;;;;-0.81;49.81;94313.91;4962149;28;20207;-75
2021/01/19 06:27:07;;;;;;;9.82;7.05;;;;;;;-0.56;49.66;94321.78;4960005;28;20172;-74
2021/01/19 06:29:32;;;;;;;11.63;7.50;;;;;;;-0.58;49.63;94318.59;4956183;28;20022;-75
2021/01/19 06:32:00;;;;;;;10.80;7.78;;;;;;;-0.47;49.67;94331.72;4960050;28;20090;-75
2021/01/19 06:34:27;;;;;;;11.32;7.68;;;;;;;-0.39;49.62;94327.31;4961173;28;20077;-74
2021/01/19 06:36:53;;;;;;;15.02;8.35;;;;;;;-0.20;49.21;94332.38;4956759;28;20034;-74
2021/01/19 06:39:29;;;;;;;15.00;9.27;;;;;;;0.00;48.86;94343.41;4958952;28;20050;-74
2021/01/19 06:42:04;;;;;;;11.40;8.27;;;;;;;0.20;48.57;94345.88;4958385;28;20031;-75
2021/01/19 06:44:36;;;;;;;13.77;8.23;;;;;;;0.33;48.32;94340.59;4975013;28;20372;-74
2021/01/19 06:47:04;;;;;;;11.38;7.65;;;;;;;0.49;48.03;94354.06;4956891;28;20047;-75
2021/01/19 06:49:35;;;;;;;11.88;7.93;;;;;;;0.56;48.01;94352.19;4960722;28;20391;-74
2021/01/19 06:52:05;;;;;;;13.00;7.90;;;;;;;0.56;47.45;94352.19;4959799;28;20113;-75
2021/01/19 06:54:40;;;;;;;11.40;7.32;;;;;;;0.64;47.90;94357.13;4963671;28;20372;-75
2021/01/19 06:57:22;;;;;;;14.00;8.80;;;;;;;0.66;47.51;94355.13;4965737;28;20042;-75
2021/01/19 07:00:00;;;;;;;14.90;8.38;;;;;;;0.79;47.56;94357.59;4952663;28;20467;-75
2021/01/19 07:02:37;;;;;;;11.68;7.38;;;;;;;0.94;47.45;94355.44;4958141;28;20034;-75
2021/01/19 07:05:11;;;;;;;15.95;8.65;;;;;;;1.02;47.46;94357.78;4972751;28;20054;-75
2021/01/19 07:07:54;;;;;;;15.57;8.07;;;;;;;1.03;47.70;94361.16;4957609;28;20043;-74
2021/01/19 07:10:32;;;;;;;18.77;9.13;;;;;;;1.04;48.23;94350.53;4969585;28;20042;-74
2021/01/19 07:13:01;;;;;;;14.65;8.90;;;;;;;0.91;48.80;94363.69;4957570;28;20057;-75
2021/01/19 07:16:07;;;;;;;18.20;9.50;;;;;;;1.01;49.16;94358.78;4955899;28;20606;-74
2021/01/19 07:18:51;;;;;;;17.38;10.00;;;;;;;1.03;49.52;94368.97;4912474;28;20118;-74
2021/01/19 07:21:20;;;;;;;15.32;8.48;;;;;;;1.16;49.48;94364.44;4962082;28;20053;-74
2021/01/19 07:23:48;;;;;;;14.90;8.60;;;;;;;1.23;49.68;94359.94;4963792;28;21147;-74
2021/01/19 07:26:20;;;;;;;18.23;10.07;;;;;;;1.32;49.62;94370.84;4960517;28;20041;-74
2021/01/19 07:28:47;;;;;;;19.08;12.57;;;;;;;1.41;49.25;94376.59;4960420;28;20039;-74
2021/01/19 07:31:15;;;;;;;20.80;12.93;;;;;;;1.47;48.94;94375.69;4958218;28;20065;-75
2021/01/19 07:33:44;;;;;;;21.95;13.73;;;;;;;1.52;49.06;94375.84;4954167;28;20070;-75
2021/01/19 07:36:28;;;;;;;15.45;8.88;;;;;;;1.43;49.60;94374.53;4955220;28;20034;-76
2021/01/19 07:38:55;;;;;;;21.23;12.40;;;;;;;1.60;49.50;94380.78;4956086;28;20034;-76
2021/01/19 07:41:34;;;;;;;23.90;13.52;;;;;;;1.68;48.45;94365.63;4970412;28;20272;-75
2021/01/19 07:44:01;;;;;;;18.63;11.23;;;;;;;1.73;48.46;94364.97;4960596;28;20125;-75
2021/01/19 07:46:29;;;;;;;14.80;8.85;;;;;;;1.67;49.04;94374.44;4961137;28;20127;-76
2021/01/19 07:49:01;;;;;;;19.50;9.55;;;;;;;1.72;48.91;94374.59;4960933;28;20041;-75
2021/01/19 07:51:44;;;;;;;12.85;8.32;;;;;;;1.66;49.49;94370.25;4960796;28;20050;-75
2021/01/19 07:54:14;;;;;;;12.57;7.95;;;;;;;1.60;49.64;94380.78;4959420;28;20482;-77
2021/01/19 07:56:40;;;;;;;14.27;9.25;;;;;;;1.64;49.54;94392.34;4963629;28;20077;-76
2021/01/19 07:59:16;;;;;;;16.33;10.40;;;;;;;1.76;49.58;94387.19;4960392;28;20050;-76
2021/01/19 08:01:56;;;;;;;12.98;8.02;;;;;;;1.82;49.38;94400.13;4961168;28;20503;-76
2021/01/19 08:04:30;;;;;;;13.02;8.52;;;;;;;1.90;49.50;94407.66;4959120;28;20470;-75
2021/01/19 08:06:56;;;;;;;12.13;8.57;;;;;;;1.61;49.47;94364.13;4957893;28;20031;-76
2021/01/19 08:09:22;;;;;;;18.75;10.60;;;;;;;1.81;49.79;94403.75;4961815;28;20124;-75
2021/01/19 08:12:03;;;;;;;23.65;12.13;;;;;;;1.78;49.87;94408.59;4961976;28;20118;-76
2021/01/19 08:15:02;;;;;;;14.88;8.70;;;;;;;1.62;50.36;94416.00;4963188;28;20031;-76
2021/01/19 08:17:37;;;;;;;22.27;11.27;;;;;;;1.62;50.60;94395.16;4961325;28;20043;-76
2021/01/19 08:20:07;;;;;;;17.08;10.07;;;;;;;1.71;50.62;94408.69;4956933;28;20170;-76
2021/01/19 08:22:32;;;;;;;16.48;9.45;;;;;;;1.74;50.57;94416.88;4958100;28;20114;-76
2021/01/19 08:25:00;;;;;;;18.15;10.00;;;;;;;1.60;50.53;94401.63;4955197;28;20054;-74
2021/01/19 08:27:29;;;;;;;17.40;10.05;;;;;;;1.79;50.72;94426.63;4960149;28;20128;-73
2021/01/19 08:29:55;;;;;;;21.35;11.15;;;;;;;1.83;50.14;94433.00;4974130;28;20027;-73
2021/01/19 08:32:21;;;;;;;16.20;9.70;;;;;;;1.83;49.86;94433.00;4959746;28;20058;-74
2021/01/19 08:34:50;;;;;;;15.98;9.23;;;;;;;1.88;49.86;94437.53;4956052;28;20145;-76
2021/01/19 08:37:17;;;;;;;19.13;11.07;;;;;;;1.98;50.09;94440.44;4964429;28;20034;-76
2021/01/19 08:39:52;;;;;;;21.08;11.60;;;;;;;1.99;50.02;94436.81;4973285;28;20179;-74
2021/01/19 08:42:20;;;;;;;19.13;10.93;;;;;;;1.99;50.02;94426.38;4959494;28;20213;-74
2021/01/19 08:44:58;;;;;;;22.80;11.95;;;;;;;1.93;50.19;94422.06;4960892;28;20060;-74
2021/01/19 08:47:26;;;;;;;19.75;11.75;;;;;;;2.09;49.83;94422.25;4963115;28;20027;-74
2021/01/19 08:49:51;;;;;;;18.83;11.95;;;;;;;2.14;50.22;94425.00;4962235;28;20043;-74
2021/01/19 08:52:17;;;;;;;23.08;12.75;;;;;;;2.33;50.09;94438.78;4963559;28;20461;-74
2021/01/19 08:54:43;;;;;;;20.83;12.68;;;;;;;2.33;49.51;94424.94;4958424;28;20590;-73
2021/01/19 08:57:19;;;;;;;48.78;28.33;;;;;;;2.45;49.74;94430.97;4959117;28;20239;-74
2021/01/19 08:59:51;;;;;;;24.42;16.83;;;;;;;2.29;49.57;94418.56;4958888;28;20140;-74
2021/01/19 09:02:17;;;;;;;21.63;11.02;;;;;;;2.54;49.30;94427.03;4959453;28;20031;-74
2021/01/19 09:04:44;;;;;;;17.23;11.13;;;;;;;2.75;49.08;94441.34;4955340;28;20050;-74
2021/01/19 09:07:11;;;;;;;14.60;8.82;;;;;;;2.79;48.92;94435.47;4962717;28;20085;-74
2021/01/19 09:09:44;;;;;;;14.00;8.98;;;;;;;2.93;48.39;94430.84;4959037;28;20042;-74
2021/01/19 09:12:17;;;;;;;11.30;7.82;;;;;;;3.14;47.97;94424.25;4971772;28;20058;-77
2021/01/19 09:14:50;;;;;;;11.98;8.07;;;;;;;3.46;48.33;94420.28;4980181;28;20093;-75
2021/01/19 09:17:27;;;;;;;15.57;10.00;;;;;;;3.80;47.17;94408.97;4959954;28;20113;-75
2021/01/19 09:20:04;;;;;;;21.13;10.32;;;;;;;3.98;46.92;94394.13;4953799;28;20043;-75
2021/01/19 09:22:30;;;;;;;19.50;10.25;;;;;;;4.08;46.83;94405.56;4959406;28;20385;-75
2021/01/19 09:24:56;;;;;;;15.35;8.70;;;;;;;4.35;45.97;94400.56;4958612;28;20510;-75
2021/01/19 09:27:21;;;;;;;11.15;7.82;;;;;;;4.39;45.60;94396.47;4959997;28;20040;-75
2021/01/19 09:29:46;;;;;;;13.55;8.93;;;;;;;4.81;44.89;94389.03;4958685;28;20620;-74
2021/01/19 09:32:12;;;;;;;17.13;10.20;;;;;;;4.93;44.51;94391.59;4958373;28;20046;-75
2021/01/19 09:34:38;;;;;;;27.15;15.43;;;;;;;4.94;44.52;94395.75;4954711;28;20038;-74
2021/01/19 09:37:08;;;;;;;16.67;9.57;;;;;;;5.26;43.77;94388.94;4951694;28;20054;-76
2021/01/19 09:39:34;;;;;;;24.35;15.98;;;;;;;5.55;43.39;94374.66;4961610;28;21190;-73
2021/01/19 09:42:04;;;;;;;24.75;17.98;;;;;;;5.86;42.46;94375.03;4964078;28;20034;-73
2021/01/19 09:44:31;;;;;;;29.50;21.30;;;;;;;6.13;42.24;94373.25;4962157;28;20046;-73
2021/01/19 09:47:04;;;;;;;17.05;14.40;;;;;;;6.27;41.57;94363.13;4966783;28;20078;-73
2021/01/19 09:49:30;;;;;;;24.98;15.10;;;;;;;6.34;41.67;94369.00;4964752;28;20649;-73
2021/01/19 09:52:10;;;;;;;18.17;12.38;;;;;;;6.24;41.26;94353.16;4967023;28;20042;-74
2021/01/19 09:54:35;;;;;;;13.85;9.23;;;;;;;6.27;41.69;94356.06;4975252;28;20408;-73
2021/01/19 09:57:00;;;;;;;11.30;7.72;;;;;;;6.28;40.93;94360.28;4959697;28;20027;-73
2021/01/19 09:59:27;;;;;;;11.77;8.40;;;;;;;6.08;41.46;94365.31;4966844;28;20030;-75
2021/01/19 10:01:56;;;;;;;9.50;6.88;;;;;;;6.12;41.22;94357.75;4960531;28;20038;-73
2021/01/19 10:04:23;;;;;;;9.48;6.75;;;;;;;6.06;41.17;94357.69;4961334;28;20038;-73
2021/01/19 10:06:48;;;;;;;16.13;10.32;;;;;;;6.09;41.35;94353.78;4962950;28;20483;-72
2021/01/19 10:09:21;;;;;;;12.90;8.85;;;;;;;6.05;41.58;94357.94;4960249;28;20047;-74
2021/01/19 10:11:55;;;;;;;16.45;10.98;;;;;;;6.05;41.40;94365.81;4960689;28;20070;-73
2021/01/19 10:14:21;;;;;;;12.30;8.73;;;;;;;6.02;41.52;94348.72;4959253;28;20538;-73
2021/01/19 10:16:48;;;;;;;17.45;10.85;;;;;;;5.98;41.33;94344.22;4959268;28;20035;-71
2021/01/19 10:19:25;;;;;;;17.80;13.70;;;;;;;6.03;41.22;94349.53;4947774;28;20057;-75
2021/01/19 10:21:58;;;;;;;12.07;7.68;;;;;;;5.96;40.94;94365.44;4951633;28;20051;-75
2021/01/19 10:24:25;;;;;;;9.32;7.57;;;;;;;5.76;41.80;94373.06;4961341;28;20508;-75
2021/01/19 10:27:04;;;;;;;14.07;10.00;;;;;;;5.62;41.74;94363.97;4958313;28;20030;-74
2021/01/19 10:29:35;;;;;;;9.85;7.47;;;;;;;5.41;42.06;94370.00;4959396;28;20387;-74
2021/01/19 10:32:02;;;;;;;12.85;8.95;;;;;;;5.18;42.52;94365.75;4957953;28;20650;-75
2021/01/19 10:34:29;;;;;;;14.50;8.85;;;;;;;5.12;42.83;94369.34;4956974;28;20491;-74
2021/01/19 10:36:57;;;;;;;13.95;9.25;;;;;;;5.15;42.95;94356.53;4963409;28;20137;-74
2021/01/19 10:39:24;;;;;;;16.10;10.20;;;;;;;5.26;42.74;94349.63;4962095;28;20035;-74
2021/01/19 10:41:51;;;;;;;13.57;9.88;;;;;;;5.34;42.67;94351.81;4960144;28;20445;-74
2021/01/19 10:44:17;;;;;;;15.27;9.65;;;;;;;5.31;42.66;94347.06;4955155;28;20022;-73
2021/01/19 10:46:45;;;;;;;15.27;9.40;;;;;;;5.32;42.80;94348.66;4954352;28;20410;-74
2021/01/19 10:49:15;;;;;;;14.80;8.65;;;;;;;5.38;42.71;94347.66;4957774;28;20034;-75
2021/01/19 10:51:44;;;;;;;10.43;8.45;;;;;;;5.20;42.46;94345.34;4973955;28;20055;-75
2021/01/19 10:54:16;;;;;;;13.25;8.55;;;;;;;5.11;43.29;94352.03;4957313;28;20038;-75
2021/01/19 10:56:44;;;;;;;14.70;7.25;;;;;;;5.10;43.21;94353.06;4965249;28;20022;-75
2021/01/19 10:59:10;;;;;;;16.50;9.18;;;;;;;4.99;43.04;94353.94;4958621;28;20092;-75
2021/01/19 11:01:36;;;;;;;14.70;8.15;;;;;;;4.80;43.74;94343.72;4964461;28;20058;-75
2021/01/19 11:04:04;;;;;;;15.23;9.57;;;;;;;4.63;43.78;94339.53;4957172;28;20043;-74
2021/01/19 11:06:34;;;;;;;10.45;7.15;;;;;;;4.60;44.02;94325.09;4951189;28;20042;-75
2021/01/19 11:09:00;;;;;;;15.38;10.20;;;;;;;4.35;44.55;94335.13;4955221;28;20042;-75
2021/01/19 11:11:27;;;;;;;14.10;8.40;;;;;;;4.30;44.82;94335.84;4959176;28;20053;-75
2021/01/19 11:13:53;;;;;;;15.50;10.45;;;;;;;4.36;44.62;94319.22;4956846;28;20042;-74
2021/01/19 11:16:19;;;;;;;10.27;7.40;;;;;;;4.41;44.67;94320.31;4960705;28;20946;-74
2021/01/19 11:18:44;;;;;;;16.60;11.38;;;;;;;4.48;44.94;94316.53;4960470;28;20034;-73
2021/01/19 11:21:11;;;;;;;13.32;8.60;;;;;;;4.71;44.10;94305.88;4961159;28;20042;-74
2021/01/19 11:23:36;;;;;;;9.95;7.60;;;;;;;4.76;43.85;94302.56;4960296;28;20031;-74
2021/01/19 11:26:02;;;;;;;10.95;8.50;;;;;;;4.88;43.86;94305.09;4953128;28;20035;-73
2021/01/19 11:28:27;;;;;;;11.57;8.38;;;;;;;4.99;43.71;94299.72;4959075;28;20042;-73
2021/01/19 11:30:53;;;;;;;13.38;9.20;;;;;;;5.11;43.79;94297.00;4953233;28;20125;-74
2021/01/19 11:33:18;;;;;;;12.35;8.57;;;;;;;5.24;43.06;94294.03;4953503;28;20067;-74
2021/01/19 11:35:44;;;;;;;13.57;10.00;;;;;;;5.35;43.06;94284.47;4960256;28;20044;-74
2021/01/19 11:38:10;;;;;;;12.18;7.70;;;;;;;5.42;42.54;94285.88;4963267;28;20023;-74